sensor_id;sensor_type;location;lat;lon;timestamp;temperature;humidity
2489;DHT22;1255;48.716;9.124;2023-11-21T00:01:17;7.00;99.90
2489;DHT22;1255;48.716;9.124;2023-11-21T00:03:44;7.10;99.90
2489;DHT22;1255;48.716;9.124;2023-11-21T00:06:11;7.10;99.90
2489;DHT22;1255;48.716;9.124;2023-11-21T00:08:38;7.10;99.90
2489;DHT22;1255;48.716;9.124;2023-11-21T00:11:05;7.10;99.90
2489;DHT22;1255;48.716;9.124;2023-11-21T00:13:31;7.10;99.90
2489;DHT22;1255;48.716;9.124;2023-11-21T04:32:14;6.90;99.90
2489;DHT22;1255;48.716;9.124;2023-11-21T04:34:41;6.90;99.90
2489;DHT22;1255;48.716;9.124;2023-11-21T04:37:11;6.90;99.90
2489;DHT22;1255;48.716;9.124;2023-11-21T04:39:39;6.80;99.90
2489;DHT22;1255;48.716;9.124;2023-11-21T04:42:06;6.80;99.90
2489;DHT22;1255;48.716;9.124;2023-11-21T04:44:39;6.90;99.90
2489;DHT22;1255;48.716;9.124;2023-11-21T04:47:12;6.90;99.90
2489;DHT22;1255;48.716;9.124;2023-11-21T04:50:17;6.90;99.90
2489;DHT22;1255;48.716;9.124;2023-11-21T04:53:04;6.90;99.90
2489;DHT22;1255;48.716;9.124;2023-11-21T04:55:32;6.90;99.90
2489;DHT22;1255;48.716;9.124;2023-11-21T05:01:34;6.90;99.90
2489;DHT22;1255;48.716;9.124;2023-11-21T05:04:02;6.90;99.90
2489;DHT22;1255;48.716;9.124;2023-11-21T05:06:30;6.80;99.90
2489;DHT22;1255;48.716;9.124;2023-11-21T05:08:58;6.80;99.90
2489;DHT22;1255;48.716;9.124;2023-11-21T05:11:25;6.80;99.90
2489;DHT22;1255;48.716;9.124;2023-11-21T05:13:52;6.70;99.90
2489;DHT22;1255;48.716;9.124;2023-11-21T05:16:19;6.70;99.90
2489;DHT22;1255;48.716;9.124;2023-11-21T05:18:46;6.70;99.90
2489;DHT22;1255;48.716;9.124;2023-11-21T05:21:12;6.70;99.90
2489;DHT22;1255;48.716;9.124;2023-11-21T05:23:41;6.60;99.90
2489;DHT22;1255;48.716;9.124;2023-11-21T05:26:08;6.60;99.90
2489;DHT22;1255;48.716;9.124;2023-11-21T05:28:35;6.60;99.90
2489;DHT22;1255;48.716;9.124;2023-11-21T05:31:02;6.60;99.90
2489;DHT22;1255;48.716;9.124;2023-11-21T05:33:29;6.60;99.90
2489;DHT22;1255;48.716;9.124;2023-11-21T05:35:55;6.60;99.90
2489;DHT22;1255;48.716;9.124;2023-11-21T05:38:22;6.60;99.90
2489;DHT22;1255;48.716;9.124;2023-11-21T05:40:50;6.60;99.90
2489;DHT22;1255;48.716;9.124;2023-11-21T05:43:16;6.60;99.90
2489;DHT22;1255;48.716;9.124;2023-11-21T05:45:43;6.60;99.90
2489;DHT22;1255;48.716;9.124;2023-11-21T05:48:10;6.60;99.90
2489;DHT22;1255;48.716;9.124;2023-11-21T05:50:37;6.60;99.90
2489;DHT22;1255;48.716;9.124;2023-11-21T05:53:04;6.60;99.90
2489;DHT22;1255;48.716;9.124;2023-11-21T05:55:30;6.60;99.90
2489;DHT22;1255;48.716;9.124;2023-11-21T05:57:58;6.60;99.90
2489;DHT22;1255;48.716;9.124;2023-11-21T06:00:25;6.60;99.90
2489;DHT22;1255;48.716;9.124;2023-11-21T06:02:53;6.60;99.90
2489;DHT22;1255;48.716;9.124;2023-11-21T06:05:22;6.60;99.90
2489;DHT22;1255;48.716;9.124;2023-11-21T06:07:49;6.50;99.90
2489;DHT22;1255;48.716;9.124;2023-11-21T06:10:16;6.50;99.90
2489;DHT22;1255;48.716;9.124;2023-11-21T06:12:44;6.50;99.90
2489;DHT22;1255;48.716;9.124;2023-11-21T06:15:13;6.50;99.90
2489;DHT22;1255;48.716;9.124;2023-11-21T06:17:40;6.50;99.90
2489;DHT22;1255;48.716;9.124;2023-11-21T06:20:08;6.50;99.90
2489;DHT22;1255;48.716;9.124;2023-11-21T06:22:35;6.60;99.90
2489;DHT22;1255;48.716;9.124;2023-11-21T06:25:02;6.60;99.90
2489;DHT22;1255;48.716;9.124;2023-11-21T06:27:31;6.60;99.90
2489;DHT22;1255;48.716;9.124;2023-11-21T06:29:58;6.60;99.90
2489;DHT22;1255;48.716;9.124;2023-11-21T06:32:26;6.60;99.90
2489;DHT22;1255;48.716;9.124;2023-11-21T06:34:55;6.60;99.90
2489;DHT22;1255;48.716;9.124;2023-11-21T06:37:21;6.60;99.90
2489;DHT22;1255;48.716;9.124;2023-11-21T06:39:48;6.60;99.90
2489;DHT22;1255;48.716;9.124;2023-11-21T06:42:17;6.60;99.90
2489;DHT22;1255;48.716;9.124;2023-11-21T06:44:45;6.60;99.90
2489;DHT22;1255;48.716;9.124;2023-11-21T06:47:11;6.60;99.90
2489;DHT22;1255;48.716;9.124;2023-11-21T06:49:41;6.60;99.90
2489;DHT22;1255;48.716;9.124;2023-11-21T06:52:07;6.60;99.90
2489;DHT22;1255;48.716;9.124;2023-11-21T06:54:34;6.60;99.90
2489;DHT22;1255;48.716;9.124;2023-11-21T06:57:01;6.60;99.90
2489;DHT22;1255;48.716;9.124;2023-11-21T06:59:28;6.70;99.90
2489;DHT22;1255;48.716;9.124;2023-11-21T07:01:55;6.70;99.90
2489;DHT22;1255;48.716;9.124;2023-11-21T07:04:22;6.80;99.90
2489;DHT22;1255;48.716;9.124;2023-11-21T07:06:51;6.80;99.90
2489;DHT22;1255;48.716;9.124;2023-11-21T07:09:18;6.80;99.90
2489;DHT22;1255;48.716;9.124;2023-11-21T07:11:47;6.90;99.90
2489;DHT22;1255;48.716;9.124;2023-11-21T07:14:14;6.90;99.90
2489;DHT22;1255;48.716;9.124;2023-11-21T07:16:40;6.90;99.90
2489;DHT22;1255;48.716;9.124;2023-11-21T07:19:07;6.90;99.90
2489;DHT22;1255;48.716;9.124;2023-11-21T07:21:35;7.00;99.90
2489;DHT22;1255;48.716;9.124;2023-11-21T07:24:04;7.00;99.90
2489;DHT22;1255;48.716;9.124;2023-11-21T07:26:32;7.00;99.90
2489;DHT22;1255;48.716;9.124;2023-11-21T07:29:00;7.00;99.90
2489;DHT22;1255;48.716;9.124;2023-11-21T07:31:27;7.00;99.90
2489;DHT22;1255;48.716;9.124;2023-11-21T07:33:54;7.00;99.90
2489;DHT22;1255;48.716;9.124;2023-11-21T07:36:23;7.10;99.90
2489;DHT22;1255;48.716;9.124;2023-11-21T07:38:50;7.10;99.90
2489;DHT22;1255;48.716;9.124;2023-11-21T07:41:19;7.10;99.90
2489;DHT22;1255;48.716;9.124;2023-11-21T07:43:46;7.10;99.90
2489;DHT22;1255;48.716;9.124;2023-11-21T07:46:13;7.10;99.90
2489;DHT22;1255;48.716;9.124;2023-11-21T07:48:41;7.20;99.90
2489;DHT22;1255;48.716;9.124;2023-11-21T07:51:08;7.20;99.90
2489;DHT22;1255;48.716;9.124;2023-11-21T07:53:36;7.30;99.90
2489;DHT22;1255;48.716;9.124;2023-11-21T07:56:04;7.30;99.90
2489;DHT22;1255;48.716;9.124;2023-11-21T07:58:33;7.40;99.90
2489;DHT22;1255;48.716;9.124;2023-11-21T08:01:02;7.30;99.90
2489;DHT22;1255;48.716;9.124;2023-11-21T08:03:29;7.30;99.90
2489;DHT22;1255;48.716;9.124;2023-11-21T08:05:56;7.40;99.90
2489;DHT22;1255;48.716;9.124;2023-11-21T08:08:23;7.40;99.90
2489;DHT22;1255;48.716;9.124;2023-11-21T08:10:50;7.40;99.90
2489;DHT22;1255;48.716;9.124;2023-11-21T08:13:22;7.40;99.90
2489;DHT22;1255;48.716;9.124;2023-11-21T08:15:50;7.40;99.90
2489;DHT22;1255;48.716;9.124;2023-11-21T08:18:17;7.40;99.90
2489;DHT22;1255;48.716;9.124;2023-11-21T08:20:44;7.40;99.90
2489;DHT22;1255;48.716;9.124;2023-11-21T08:23:13;7.40;99.90
2489;DHT22;1255;48.716;9.124;2023-11-21T08:25:42;7.50;99.90
2489;DHT22;1255;48.716;9.124;2023-11-21T08:28:09;7.60;99.90
2489;DHT22;1255;48.716;9.124;2023-11-21T08:30:35;7.70;99.90
2489;DHT22;1255;48.716;9.124;2023-11-21T08:33:03;7.70;99.90
2489;DHT22;1255;48.716;9.124;2023-11-21T08:35:31;7.80;99.90
2489;DHT22;1255;48.716;9.124;2023-11-21T08:37:57;7.80;99.90
2489;DHT22;1255;48.716;9.124;2023-11-21T08:40:24;7.90;99.90
2489;DHT22;1255;48.716;9.124;2023-11-21T08:42:51;7.90;99.90
2489;DHT22;1255;48.716;9.124;2023-11-21T08:45:18;7.90;99.90
2489;DHT22;1255;48.716;9.124;2023-11-21T08:47:45;8.00;99.90
2489;DHT22;1255;48.716;9.124;2023-11-21T08:50:13;8.10;99.90
2489;DHT22;1255;48.716;9.124;2023-11-21T08:52:41;8.20;99.90
2489;DHT22;1255;48.716;9.124;2023-11-21T08:55:08;8.20;99.90
2489;DHT22;1255;48.716;9.124;2023-11-21T08:57:38;8.30;99.90
2489;DHT22;1255;48.716;9.124;2023-11-21T09:00:06;8.50;99.90
2489;DHT22;1255;48.716;9.124;2023-11-21T09:02:36;8.60;99.90
2489;DHT22;1255;48.716;9.124;2023-11-21T09:05:04;8.70;99.90
2489;DHT22;1255;48.716;9.124;2023-11-21T09:07:32;8.90;99.90
2489;DHT22;1255;48.716;9.124;2023-11-21T09:09:59;9.10;99.90
2489;DHT22;1255;48.716;9.124;2023-11-21T09:12:26;9.10;99.90
2489;DHT22;1255;48.716;9.124;2023-11-21T09:14:53;9.10;99.90
2489;DHT22;1255;48.716;9.124;2023-11-21T09:17:19;9.10;99.90
2489;DHT22;1255;48.716;9.124;2023-11-21T09:19:46;9.10;99.90
2489;DHT22;1255;48.716;9.124;2023-11-21T09:22:16;9.10;99.90
2489;DHT22;1255;48.716;9.124;2023-11-21T09:24:44;9.10;99.90
2489;DHT22;1255;48.716;9.124;2023-11-21T09:27:11;9.20;99.90
2489;DHT22;1255;48.716;9.124;2023-11-21T09:29:38;9.20;99.90
2489;DHT22;1255;48.716;9.124;2023-11-21T09:32:05;9.30;99.90
2489;DHT22;1255;48.716;9.124;2023-11-21T09:34:33;9.40;99.90
2489;DHT22;1255;48.716;9.124;2023-11-21T09:37:01;9.40;99.90
2489;DHT22;1255;48.716;9.124;2023-11-21T09:39:31;9.50;99.90
2489;DHT22;1255;48.716;9.124;2023-11-21T09:42:09;9.70;99.90
2489;DHT22;1255;48.716;9.124;2023-11-21T09:44:45;9.80;99.90
2489;DHT22;1255;48.716;9.124;2023-11-21T09:47:15;10.00;99.90
2489;DHT22;1255;48.716;9.124;2023-11-21T09:49:46;10.20;99.90
2489;DHT22;1255;48.716;9.124;2023-11-21T09:52:21;10.50;99.90
2489;DHT22;1255;48.716;9.124;2023-11-21T09:54:50;10.70;99.90
2489;DHT22;1255;48.716;9.124;2023-11-21T09:57:20;10.80;99.90
2489;DHT22;1255;48.716;9.124;2023-11-21T09:59:51;10.80;99.90
2489;DHT22;1255;48.716;9.124;2023-11-21T10:02:22;10.70;99.90
2489;DHT22;1255;48.716;9.124;2023-11-21T10:04:51;10.60;99.90
2489;DHT22;1255;48.716;9.124;2023-11-21T10:07:20;10.40;99.90
2489;DHT22;1255;48.716;9.124;2023-11-21T10:09:47;10.20;99.90
2489;DHT22;1255;48.716;9.124;2023-11-21T10:12:15;10.10;99.90
2489;DHT22;1255;48.716;9.124;2023-11-21T10:14:47;10.00;99.90
2489;DHT22;1255;48.716;9.124;2023-11-21T10:17:15;9.90;99.90
2489;DHT22;1255;48.716;9.124;2023-11-21T10:19:46;9.80;99.90
2489;DHT22;1255;48.716;9.124;2023-11-21T10:22:14;9.70;99.90
2489;DHT22;1255;48.716;9.124;2023-11-21T10:24:42;9.60;99.90
2489;DHT22;1255;48.716;9.124;2023-11-21T10:27:09;9.50;99.90
2489;DHT22;1255;48.716;9.124;2023-11-21T10:29:35;9.40;99.90
2489;DHT22;1255;48.716;9.124;2023-11-21T10:32:04;9.30;99.90
2489;DHT22;1255;48.716;9.124;2023-11-21T10:34:31;9.30;99.90
2489;DHT22;1255;48.716;9.124;2023-11-21T10:37:10;9.20;99.90
2489;DHT22;1255;48.716;9.124;2023-11-21T10:39:39;9.20;99.90
2489;DHT22;1255;48.716;9.124;2023-11-21T10:42:08;9.10;99.90
2489;DHT22;1255;48.716;9.124;2023-11-21T10:44:35;9.10;99.90
2489;DHT22;1255;48.716;9.124;2023-11-21T10:47:04;9.10;99.90
2489;DHT22;1255;48.716;9.124;2023-11-21T10:49:31;9.00;99.90
2489;DHT22;1255;48.716;9.124;2023-11-21T10:51:59;9.00;99.90
2489;DHT22;1255;48.716;9.124;2023-11-21T10:54:26;9.00;99.90
2489;DHT22;1255;48.716;9.124;2023-11-21T10:56:56;8.90;99.90
2489;DHT22;1255;48.716;9.124;2023-11-21T10:59:26;8.90;99.90
2489;DHT22;1255;48.716;9.124;2023-11-21T11:01:57;8.90;99.90
2489;DHT22;1255;48.716;9.124;2023-11-21T11:04:27;8.90;99.90
2489;DHT22;1255;48.716;9.124;2023-11-21T11:06:56;8.90;99.90
2489;DHT22;1255;48.716;9.124;2023-11-21T11:09:23;9.00;99.90
2489;DHT22;1255;48.716;9.124;2023-11-21T11:11:51;9.00;99.90
2489;DHT22;1255;48.716;9.124;2023-11-21T11:14:19;9.00;99.90
2489;DHT22;1255;48.716;9.124;2023-11-21T11:16:53;9.00;99.90
2489;DHT22;1255;48.716;9.124;2023-11-21T11:19:20;9.00;99.90
2489;DHT22;1255;48.716;9.124;2023-11-21T11:21:55;9.00;99.90
2489;DHT22;1255;48.716;9.124;2023-11-21T11:24:42;9.00;99.90
2489;DHT22;1255;48.716;9.124;2023-11-21T11:27:18;9.00;99.90
2489;DHT22;1255;48.716;9.124;2023-11-21T11:29:54;9.00;99.90
2489;DHT22;1255;48.716;9.124;2023-11-21T11:32:36;9.00;99.90
2489;DHT22;1255;48.716;9.124;2023-11-21T11:35:10;9.00;99.90
2489;DHT22;1255;48.716;9.124;2023-11-21T11:37:43;9.00;99.90
2489;DHT22;1255;48.716;9.124;2023-11-21T11:40:11;9.00;99.90
2489;DHT22;1255;48.716;9.124;2023-11-21T11:42:38;9.10;99.90
2489;DHT22;1255;48.716;9.124;2023-11-21T11:45:17;9.10;99.90
2489;DHT22;1255;48.716;9.124;2023-11-21T11:47:47;9.10;99.90
2489;DHT22;1255;48.716;9.124;2023-11-21T11:50:14;9.10;99.90
2489;DHT22;1255;48.716;9.124;2023-11-21T11:52:45;9.10;99.90
2489;DHT22;1255;48.716;9.124;2023-11-21T11:55:14;9.20;99.90
2489;DHT22;1255;48.716;9.124;2023-11-21T11:57:44;9.30;99.90
2489;DHT22;1255;48.716;9.124;2023-11-21T12:00:15;9.50;99.90
2489;DHT22;1255;48.716;9.124;2023-11-21T12:02:51;9.80;99.90
2489;DHT22;1255;48.716;9.124;2023-11-21T12:05:19;10.00;99.90
2489;DHT22;1255;48.716;9.124;2023-11-21T12:07:49;10.20;99.90
2489;DHT22;1255;48.716;9.124;2023-11-21T12:10:19;10.40;99.90
2489;DHT22;1255;48.716;9.124;2023-11-21T12:12:47;10.60;99.90
2489;DHT22;1255;48.716;9.124;2023-11-21T12:15:14;10.70;99.90
2489;DHT22;1255;48.716;9.124;2023-11-21T12:17:42;10.90;99.90
2489;DHT22;1255;48.716;9.124;2023-11-21T12:20:10;11.10;99.90
2489;DHT22;1255;48.716;9.124;2023-11-21T12:22:45;11.30;99.90
2489;DHT22;1255;48.716;9.124;2023-11-21T12:25:16;11.50;99.90
2489;DHT22;1255;48.716;9.124;2023-11-21T12:27:44;11.50;99.90
2489;DHT22;1255;48.716;9.124;2023-11-21T12:30:13;11.50;99.90
2489;DHT22;1255;48.716;9.124;2023-11-21T12:32:42;11.40;99.90
2489;DHT22;1255;48.716;9.124;2023-11-21T12:35:12;11.20;99.90
2489;DHT22;1255;48.716;9.124;2023-11-21T12:37:41;11.00;99.90
2489;DHT22;1255;48.716;9.124;2023-11-21T12:40:10;10.90;99.90
2489;DHT22;1255;48.716;9.124;2023-11-21T12:42:42;10.80;99.90
2489;DHT22;1255;48.716;9.124;2023-11-21T12:45:20;10.70;99.90
2489;DHT22;1255;48.716;9.124;2023-11-21T12:47:49;10.70;99.90
2489;DHT22;1255;48.716;9.124;2023-11-21T12:50:22;10.60;99.90
2489;DHT22;1255;48.716;9.124;2023-11-21T12:52:59;10.50;99.90
2489;DHT22;1255;48.716;9.124;2023-11-21T12:55:32;10.40;99.90
2489;DHT22;1255;48.716;9.124;2023-11-21T12:58:07;10.30;99.90
2489;DHT22;1255;48.716;9.124;2023-11-21T13:00:37;10.10;99.90
2489;DHT22;1255;48.716;9.124;2023-11-21T13:03:07;9.90;99.90
2489;DHT22;1255;48.716;9.124;2023-11-21T13:05:36;9.80;99.90
2489;DHT22;1255;48.716;9.124;2023-11-21T13:08:06;9.70;99.90
2489;DHT22;1255;48.716;9.124;2023-11-21T13:10:36;9.60;99.90
2489;DHT22;1255;48.716;9.124;2023-11-21T13:13:07;9.60;99.90
2489;DHT22;1255;48.716;9.124;2023-11-21T13:15:39;9.50;99.90
2489;DHT22;1255;48.716;9.124;2023-11-21T13:18:06;9.50;99.90
2489;DHT22;1255;48.716;9.124;2023-11-21T13:20:36;9.50;99.90
2489;DHT22;1255;48.716;9.124;2023-11-21T13:23:08;9.40;99.90
2489;DHT22;1255;48.716;9.124;2023-11-21T13:25:38;9.40;99.90
2489;DHT22;1255;48.716;9.124;2023-11-21T13:28:08;9.40;99.90
2489;DHT22;1255;48.716;9.124;2023-11-21T13:30:36;9.50;99.90
2489;DHT22;1255;48.716;9.124;2023-11-21T13:33:06;9.60;99.90
2489;DHT22;1255;48.716;9.124;2023-11-21T13:35:34;9.70;99.90
2489;DHT22;1255;48.716;9.124;2023-11-21T13:38:04;9.60;99.90
2489;DHT22;1255;48.716;9.124;2023-11-21T13:40:32;9.50;99.90
2489;DHT22;1255;48.716;9.124;2023-11-21T13:43:00;9.30;99.90
2489;DHT22;1255;48.716;9.124;2023-11-21T13:45:31;9.20;99.90
2489;DHT22;1255;48.716;9.124;2023-11-21T13:47:58;9.20;99.90
2489;DHT22;1255;48.716;9.124;2023-11-21T13:50:25;9.10;99.90
2489;DHT22;1255;48.716;9.124;2023-11-21T13:52:58;9.00;99.90
2489;DHT22;1255;48.716;9.124;2023-11-21T13:55:29;9.00;99.90
2489;DHT22;1255;48.716;9.124;2023-11-21T13:57:56;8.90;99.90
2489;DHT22;1255;48.716;9.124;2023-11-21T14:00:24;8.80;99.90
2489;DHT22;1255;48.716;9.124;2023-11-21T14:03:08;8.80;99.90
2489;DHT22;1255;48.716;9.124;2023-11-21T14:05:43;8.90;99.90
2489;DHT22;1255;48.716;9.124;2023-11-21T14:08:11;8.90;99.90
2489;DHT22;1255;48.716;9.124;2023-11-21T14:10:42;8.90;99.90
2489;DHT22;1255;48.716;9.124;2023-11-21T14:13:09;8.90;99.90
2489;DHT22;1255;48.716;9.124;2023-11-21T14:15:39;9.00;99.90
2489;DHT22;1255;48.716;9.124;2023-11-21T14:18:10;8.90;99.90
2489;DHT22;1255;48.716;9.124;2023-11-21T14:20:38;8.90;99.90
2489;DHT22;1255;48.716;9.124;2023-11-21T14:23:05;8.80;99.90
2489;DHT22;1255;48.716;9.124;2023-11-21T14:25:32;8.80;99.90
2489;DHT22;1255;48.716;9.124;2023-11-21T14:27:59;8.80;99.90
2489;DHT22;1255;48.716;9.124;2023-11-21T14:30:26;8.80;99.90
2489;DHT22;1255;48.716;9.124;2023-11-21T14:32:55;8.80;99.90
2489;DHT22;1255;48.716;9.124;2023-11-21T14:35:23;8.70;99.90
2489;DHT22;1255;48.716;9.124;2023-11-21T14:37:50;8.70;99.90
2489;DHT22;1255;48.716;9.124;2023-11-21T14:40:17;8.60;99.90
2489;DHT22;1255;48.716;9.124;2023-11-21T14:42:47;8.60;99.90
2489;DHT22;1255;48.716;9.124;2023-11-21T14:45:14;8.60;99.90
2489;DHT22;1255;48.716;9.124;2023-11-21T14:47:45;8.60;99.90
2489;DHT22;1255;48.716;9.124;2023-11-21T14:50:20;8.60;99.90
2489;DHT22;1255;48.716;9.124;2023-11-21T14:53:16;8.50;99.90
2489;DHT22;1255;48.716;9.124;2023-11-21T14:55:50;8.50;99.90
2489;DHT22;1255;48.716;9.124;2023-11-21T14:58:23;8.40;99.90
2489;DHT22;1255;48.716;9.124;2023-11-21T15:00:53;8.40;99.90
2489;DHT22;1255;48.716;9.124;2023-11-21T15:03:23;8.30;99.90
2489;DHT22;1255;48.716;9.124;2023-11-21T15:06:08;8.40;99.90
2489;DHT22;1255;48.716;9.124;2023-11-21T15:08:51;8.30;99.90
2489;DHT22;1255;48.716;9.124;2023-11-21T15:11:22;8.30;99.90
2489;DHT22;1255;48.716;9.124;2023-11-21T15:13:56;8.30;99.90
2489;DHT22;1255;48.716;9.124;2023-11-21T15:16:22;8.30;99.90
2489;DHT22;1255;48.716;9.124;2023-11-21T15:18:49;8.30;99.90
2489;DHT22;1255;48.716;9.124;2023-11-21T15:21:15;8.30;99.90
2489;DHT22;1255;48.716;9.124;2023-11-21T15:23:42;8.30;99.90
2489;DHT22;1255;48.716;9.124;2023-11-21T15:26:10;8.20;99.90
2489;DHT22;1255;48.716;9.124;2023-11-21T15:28:37;8.20;99.90
2489;DHT22;1255;48.716;9.124;2023-11-21T15:31:04;8.20;99.90
2489;DHT22;1255;48.716;9.124;2023-11-21T15:33:30;8.20;99.90
2489;DHT22;1255;48.716;9.124;2023-11-21T15:35:57;8.20;99.90
2489;DHT22;1255;48.716;9.124;2023-11-21T15:38:24;8.20;99.90
2489;DHT22;1255;48.716;9.124;2023-11-21T15:40:51;8.20;99.90
2489;DHT22;1255;48.716;9.124;2023-11-21T15:43:19;8.10;99.90
2489;DHT22;1255;48.716;9.124;2023-11-21T15:45:46;8.10;99.90
2489;DHT22;1255;48.716;9.124;2023-11-21T15:48:13;8.10;99.90
2489;DHT22;1255;48.716;9.124;2023-11-21T15:50:41;8.10;99.90
2489;DHT22;1255;48.716;9.124;2023-11-21T15:53:08;8.00;99.90
2489;DHT22;1255;48.716;9.124;2023-11-21T15:55:35;8.00;99.90
2489;DHT22;1255;48.716;9.124;2023-11-21T15:58:07;8.00;99.90
2489;DHT22;1255;48.716;9.124;2023-11-21T16:00:35;8.00;99.90
2489;DHT22;1255;48.716;9.124;2023-11-21T16:03:02;8.00;99.90
2489;DHT22;1255;48.716;9.124;2023-11-21T16:05:29;8.00;99.90
2489;DHT22;1255;48.716;9.124;2023-11-21T16:07:56;7.90;99.90
2489;DHT22;1255;48.716;9.124;2023-11-21T16:10:23;7.90;99.90
2489;DHT22;1255;48.716;9.124;2023-11-21T16:12:50;7.90;99.90
2489;DHT22;1255;48.716;9.124;2023-11-21T16:15:16;7.90;99.90
2489;DHT22;1255;48.716;9.124;2023-11-21T16:17:46;7.90;99.90
2489;DHT22;1255;48.716;9.124;2023-11-21T16:20:13;7.90;99.90
2489;DHT22;1255;48.716;9.124;2023-11-21T16:22:43;7.90;99.90
2489;DHT22;1255;48.716;9.124;2023-11-21T16:25:10;7.80;99.90
2489;DHT22;1255;48.716;9.124;2023-11-21T16:27:39;7.80;99.90
2489;DHT22;1255;48.716;9.124;2023-11-21T16:30:08;7.90;99.90
2489;DHT22;1255;48.716;9.124;2023-11-21T16:32:35;7.80;99.90
2489;DHT22;1255;48.716;9.124;2023-11-21T16:35:04;7.90;99.90
2489;DHT22;1255;48.716;9.124;2023-11-21T16:37:31;7.90;99.90
2489;DHT22;1255;48.716;9.124;2023-11-21T16:39:58;7.90;99.90
2489;DHT22;1255;48.716;9.124;2023-11-21T16:42:25;7.80;99.90
2489;DHT22;1255;48.716;9.124;2023-11-21T16:44:53;7.80;99.90
2489;DHT22;1255;48.716;9.124;2023-11-21T16:47:20;7.80;99.90
2489;DHT22;1255;48.716;9.124;2023-11-21T16:49:48;7.80;99.90
2489;DHT22;1255;48.716;9.124;2023-11-21T16:52:16;7.80;99.90
2489;DHT22;1255;48.716;9.124;2023-11-21T16:54:47;7.80;99.90
2489;DHT22;1255;48.716;9.124;2023-11-21T16:57:14;7.80;99.90
2489;DHT22;1255;48.716;9.124;2023-11-21T16:59:41;7.80;99.90
2489;DHT22;1255;48.716;9.124;2023-11-21T17:02:08;7.80;99.90
2489;DHT22;1255;48.716;9.124;2023-11-21T17:04:35;7.70;99.90
2489;DHT22;1255;48.716;9.124;2023-11-21T17:07:06;7.70;99.90
2489;DHT22;1255;48.716;9.124;2023-11-21T17:09:35;7.70;99.90
2489;DHT22;1255;48.716;9.124;2023-11-21T17:12:02;7.60;99.90
2489;DHT22;1255;48.716;9.124;2023-11-21T17:14:31;7.60;99.90
2489;DHT22;1255;48.716;9.124;2023-11-21T17:16:58;7.50;99.90
2489;DHT22;1255;48.716;9.124;2023-11-21T17:19:25;7.40;99.90
2489;DHT22;1255;48.716;9.124;2023-11-21T17:21:57;7.40;99.90
2489;DHT22;1255;48.716;9.124;2023-11-21T17:24:23;7.30;99.90
2489;DHT22;1255;48.716;9.124;2023-11-21T17:26:52;7.30;99.90
2489;DHT22;1255;48.716;9.124;2023-11-21T17:29:19;7.30;99.90
2489;DHT22;1255;48.716;9.124;2023-11-21T17:31:45;7.30;99.90
2489;DHT22;1255;48.716;9.124;2023-11-21T17:34:12;7.40;99.90
2489;DHT22;1255;48.716;9.124;2023-11-21T17:36:44;7.40;99.90
2489;DHT22;1255;48.716;9.124;2023-11-21T17:39:11;7.40;99.90
2489;DHT22;1255;48.716;9.124;2023-11-21T17:41:38;7.40;99.90
2489;DHT22;1255;48.716;9.124;2023-11-21T17:44:06;7.40;99.90
2489;DHT22;1255;48.716;9.124;2023-11-21T17:46:33;7.40;99.90
2489;DHT22;1255;48.716;9.124;2023-11-21T17:49:00;7.40;99.90
2489;DHT22;1255;48.716;9.124;2023-11-21T17:51:27;7.40;99.90
2489;DHT22;1255;48.716;9.124;2023-11-21T17:53:53;7.40;99.90
2489;DHT22;1255;48.716;9.124;2023-11-21T17:56:26;7.30;99.90
2489;DHT22;1255;48.716;9.124;2023-11-21T17:58:53;7.30;99.90
2489;DHT22;1255;48.716;9.124;2023-11-21T18:01:23;7.30;99.90
2489;DHT22;1255;48.716;9.124;2023-11-21T18:03:56;7.30;99.90
2489;DHT22;1255;48.716;9.124;2023-11-21T18:06:23;7.30;99.90
2489;DHT22;1255;48.716;9.124;2023-11-21T18:08:50;7.30;99.90
2489;DHT22;1255;48.716;9.124;2023-11-21T18:11:17;7.30;99.90
2489;DHT22;1255;48.716;9.124;2023-11-21T18:13:44;7.30;99.90
2489;DHT22;1255;48.716;9.124;2023-11-21T18:16:11;7.30;99.90
2489;DHT22;1255;48.716;9.124;2023-11-21T18:18:39;7.30;99.90
2489;DHT22;1255;48.716;9.124;2023-11-21T18:21:06;7.40;99.90
2489;DHT22;1255;48.716;9.124;2023-11-21T18:23:33;7.40;99.90
2489;DHT22;1255;48.716;9.124;2023-11-21T18:26:00;7.40;99.90
2489;DHT22;1255;48.716;9.124;2023-11-21T18:28:26;7.40;99.90
2489;DHT22;1255;48.716;9.124;2023-11-21T18:30:53;7.40;99.90
2489;DHT22;1255;48.716;9.124;2023-11-21T18:33:20;7.40;99.90
2489;DHT22;1255;48.716;9.124;2023-11-21T18:35:49;7.40;99.90
2489;DHT22;1255;48.716;9.124;2023-11-21T18:38:16;7.40;99.90
2489;DHT22;1255;48.716;9.124;2023-11-21T18:40:43;7.40;99.90
2489;DHT22;1255;48.716;9.124;2023-11-21T18:43:10;7.40;99.90
2489;DHT22;1255;48.716;9.124;2023-11-21T18:45:37;7.40;99.90
2489;DHT22;1255;48.716;9.124;2023-11-21T18:48:04;7.40;99.90
2489;DHT22;1255;48.716;9.124;2023-11-21T18:50:31;7.40;99.90
2489;DHT22;1255;48.716;9.124;2023-11-21T18:53:00;7.40;99.90
2489;DHT22;1255;48.716;9.124;2023-11-21T18:55:26;7.40;99.90
2489;DHT22;1255;48.716;9.124;2023-11-21T18:57:53;7.50;99.90
2489;DHT22;1255;48.716;9.124;2023-11-21T19:00:22;7.50;99.90
2489;DHT22;1255;48.716;9.124;2023-11-21T19:02:49;7.50;99.90
2489;DHT22;1255;48.716;9.124;2023-11-21T19:05:16;7.50;99.90
2489;DHT22;1255;48.716;9.124;2023-11-21T19:07:44;7.50;99.90
2489;DHT22;1255;48.716;9.124;2023-11-21T19:10:12;7.50;99.90
2489;DHT22;1255;48.716;9.124;2023-11-21T19:12:39;7.50;99.90
2489;DHT22;1255;48.716;9.124;2023-11-21T19:15:07;7.50;99.90
2489;DHT22;1255;48.716;9.124;2023-11-21T19:17:35;7.50;99.90
2489;DHT22;1255;48.716;9.124;2023-11-21T19:20:07;7.50;99.90
2489;DHT22;1255;48.716;9.124;2023-11-21T19:22:35;7.50;99.90
2489;DHT22;1255;48.716;9.124;2023-11-21T19:25:04;7.50;99.90
2489;DHT22;1255;48.716;9.124;2023-11-21T19:27:32;7.50;99.90
2489;DHT22;1255;48.716;9.124;2023-11-21T19:30:01;7.50;99.90
2489;DHT22;1255;48.716;9.124;2023-11-21T19:32:30;7.50;99.90
2489;DHT22;1255;48.716;9.124;2023-11-21T19:34:58;7.50;99.90
2489;DHT22;1255;48.716;9.124;2023-11-21T19:37:25;7.50;99.90
2489;DHT22;1255;48.716;9.124;2023-11-21T19:39:52;7.50;99.90
2489;DHT22;1255;48.716;9.124;2023-11-21T19:42:19;7.50;99.90
2489;DHT22;1255;48.716;9.124;2023-11-21T19:44:47;7.50;99.90
2489;DHT22;1255;48.716;9.124;2023-11-21T19:47:14;7.50;99.90
2489;DHT22;1255;48.716;9.124;2023-11-21T19:49:41;7.50;99.90
2489;DHT22;1255;48.716;9.124;2023-11-21T19:52:07;7.50;99.90
2489;DHT22;1255;48.716;9.124;2023-11-21T19:54:35;7.60;99.90
2489;DHT22;1255;48.716;9.124;2023-11-21T19:57:02;7.50;99.90
2489;DHT22;1255;48.716;9.124;2023-11-21T19:59:30;7.50;99.90
2489;DHT22;1255;48.716;9.124;2023-11-21T20:01:58;7.50;99.90
2489;DHT22;1255;48.716;9.124;2023-11-21T20:04:25;7.50;99.90
2489;DHT22;1255;48.716;9.124;2023-11-21T20:06:52;7.50;99.90
2489;DHT22;1255;48.716;9.124;2023-11-21T20:09:19;7.50;99.90
2489;DHT22;1255;48.716;9.124;2023-11-21T20:11:46;7.50;99.90
2489;DHT22;1255;48.716;9.124;2023-11-21T20:14:16;7.50;99.90
2489;DHT22;1255;48.716;9.124;2023-11-21T20:16:43;7.50;99.90
2489;DHT22;1255;48.716;9.124;2023-11-21T20:19:13;7.50;99.90
2489;DHT22;1255;48.716;9.124;2023-11-21T20:21:40;7.40;99.90
2489;DHT22;1255;48.716;9.124;2023-11-21T20:24:07;7.40;99.90
2489;DHT22;1255;48.716;9.124;2023-11-21T20:26:37;7.40;99.90
2489;DHT22;1255;48.716;9.124;2023-11-21T20:29:07;7.40;99.90
2489;DHT22;1255;48.716;9.124;2023-11-21T20:31:34;7.40;99.90
2489;DHT22;1255;48.716;9.124;2023-11-21T20:34:01;7.40;99.90
2489;DHT22;1255;48.716;9.124;2023-11-21T20:36:31;7.40;99.90
2489;DHT22;1255;48.716;9.124;2023-11-21T20:38:58;7.40;99.90
2489;DHT22;1255;48.716;9.124;2023-11-21T20:41:25;7.30;99.90
2489;DHT22;1255;48.716;9.124;2023-11-21T20:43:53;7.40;99.90
2489;DHT22;1255;48.716;9.124;2023-11-21T20:46:21;7.40;99.90